Time;durP1;ratioP1;P1;durP2;ratioP2;P2;SDS_P1;SDS_P2;PMS_P1;PMS_P2;Temp;Humidity;BMP_temperature;BMP_pressure;BME280_temperature;BME280_humidity;BME280_pressure;Samples;Min_cycle;Max_cycle;Signal;HPM_P1;HPM_P2
2022/10/23 00:01:52;;;;;;;;;40.00;34.50;;;;;25.60;48.69;100814.63;5036182;28;48591;-71
2022/10/23 00:04:24;;;;;;;;;39.25;34.50;;;;;25.57;49.15;100804.38;5036575;28;45271;-72
2022/10/23 00:06:49;;;;;;;;;37.50;33.00;;;;;25.56;49.35;100800.91;5036760;28;45537;-72
2022/10/23 00:09:17;;;;;;;;;37.75;33.25;;;;;25.52;48.97;100802.34;5036980;28;45448;-72
2022/10/23 00:11:46;;;;;;;;;36.75;32.00;;;;;25.61;49.35;100819.75;5036760;28;45379;-72
2022/10/23 00:14:13;;;;;;;;;36.00;32.50;;;;;25.62;49.15;100826.72;5036071;28;47215;-71
2022/10/23 00:16:38;;;;;;;;;30.00;29.25;;;;;25.60;49.69;100811.97;5034189;28;45554;-72
2022/10/23 00:19:04;;;;;;;;;36.00;32.25;;;;;25.58;49.45;100803.38;5036700;28;45362;-72
2022/10/23 00:21:29;;;;;;;;;27.00;26.25;;;;;25.69;49.19;100810.72;5036356;28;45343;-72
2022/10/23 00:23:55;;;;;;;;;25.75;25.75;;;;;25.72;48.96;100802.31;5036451;28;46882;-73
2022/10/23 00:26:20;;;;;;;;;37.50;31.50;;;;;25.75;49.00;100793.13;5037166;28;45239;-72
2022/10/23 00:28:49;;;;;;;;;26.00;23.00;;;;;25.67;49.11;100766.66;5036431;28;45438;-74
2022/10/23 00:31:16;;;;;;;;;38.25;32.25;;;;;25.82;49.81;100788.59;5036760;28;45500;-70
2022/10/23 00:33:41;;;;;;;;;30.00;29.50;;;;;25.83;49.57;100789.44;5036387;28;46283;-69
2022/10/23 00:36:10;;;;;;;;;27.25;26.25;;;;;25.84;49.06;100793.75;5036627;28;45390;-70
2022/10/23 00:38:36;;;;;;;;;24.50;20.00;;;;;25.83;49.13;100782.25;5036666;28;45451;-69
2022/10/23 00:41:01;;;;;;;;;23.75;20.00;;;;;25.82;48.87;100772.63;5036085;28;45677;-70
2022/10/23 00:43:29;;;;;;;;;26.00;23.25;;;;;25.82;48.95;100767.28;5035531;28;45416;-70
2022/10/23 00:45:55;;;;;;;;;24.50;22.00;;;;;25.80;48.95;100755.19;5022308;28;45417;-69
2022/10/23 00:48:21;;;;;;;;;17.00;16.00;;;;;25.74;48.90;100744.34;5036265;28;45387;-70
2022/10/23 00:50:48;;;;;;;;;22.25;20.50;;;;;25.84;49.04;100753.78;5035969;28;45469;-71
2022/10/23 00:53:15;;;;;;;;;22.00;22.00;;;;;25.81;49.42;100752.34;5036232;28;46150;-70
2022/10/23 00:55:45;;;;;;;;;19.25;19.00;;;;;25.85;49.65;100750.88;5036134;28;45344;-69
2022/10/23 00:58:18;;;;;;;;;18.50;18.50;;;;;25.87;49.33;100756.00;5035999;28;45456;-70
2022/10/23 01:00:50;;;;;;;;;20.25;19.25;;;;;25.89;49.32;100745.97;5036173;28;45371;-69
2022/10/23 01:03:18;;;;;;;;;16.00;16.00;;;;;25.81;49.06;100731.03;5030211;28;45350;-74
2022/10/23 01:06:00;;;;;;;;;23.00;23.00;;;;;25.82;49.66;100726.50;5028288;28;45287;-72
2022/10/23 01:08:47;;;;;;;;;18.33;15.33;;;;;25.86;47.78;100727.72;5035183;28;45441;-71
2022/10/23 01:11:15;;;;;;;;;18.50;15.75;;;;;25.74;47.79;100722.19;5035960;28;45384;-72
2022/10/23 01:13:56;;;;;;;;;17.67;14.67;;;;;25.63;48.23;100707.66;5034853;28;46316;-72
2022/10/23 01:16:45;;;;;;;;;17.75;16.75;;;;;25.65;47.73;100716.25;5051213;28;45488;-72
2022/10/23 01:19:24;;;;;;;;;18.50;17.50;;;;;25.62;47.60;100711.34;5026876;28;45428;-71
2022/10/23 01:22:10;;;;;;;;;19.00;16.75;;;;;25.60;47.74;100713.41;5035727;28;45631;-73
2022/10/23 01:24:55;;;;;;;;;23.50;21.25;;;;;25.54;47.26;100704.41;5036825;28;46287;-72
2022/10/23 01:27:23;;;;;;;;;17.50;17.50;;;;;25.50;47.46;100706.63;5035467;28;45339;-74
2022/10/23 01:30:02;;;;;;;;;30.50;27.75;;;;;25.48;47.75;100718.53;5035954;28;45254;-72
2022/10/23 01:32:46;;;;;;;;;22.25;21.25;;;;;25.45;47.49;100714.44;5035809;28;45417;-72
2022/10/23 01:35:18;;;;;;;;;35.25;31.75;;;;;25.44;47.88;100699.50;5035689;28;46385;-72
2022/10/23 01:37:50;;;;;;;;;22.00;21.75;;;;;25.43;47.49;100699.69;5035798;28;45539;-71
2022/10/23 01:40:43;;;;;;;;;28.50;25.00;;;;;25.39;47.97;100704.63;5035407;28;45507;-72
2022/10/23 01:43:17;;;;;;;;;22.25;22.25;;;;;25.32;47.47;100688.63;5035532;28;45456;-72
2022/10/23 01:45:49;;;;;;;;;27.25;24.50;;;;;25.38;47.71;100684.34;5021354;28;47346;-73
2022/10/23 01:48:18;;;;;;;;;26.25;21.25;;;;;25.38;47.55;100679.84;5035499;28;45333;-73
2022/10/23 01:50:45;;;;;;;;;25.25;22.75;;;;;25.37;47.44;100678.19;5035625;28;45537;-72
2022/10/23 01:53:10;;;;;;;;;20.75;20.00;;;;;25.37;47.29;100667.53;5035522;28;45448;-73
2022/10/23 01:55:39;;;;;;;;;24.00;22.25;;;;;25.37;47.45;100664.06;5034958;28;46482;-73
2022/10/23 01:58:07;;;;;;;;;28.75;27.00;;;;;25.32;47.55;100639.91;5035117;28;45457;-73
2022/10/23 02:00:35;;;;;;;;;23.75;21.50;;;;;25.37;47.36;100642.78;5035533;28;45381;-73
2022/10/23 02:03:03;;;;;;;;;25.00;23.50;;;;;25.36;47.13;100631.28;5030673;28;45401;-73
2022/10/23 02:05:29;;;;;;;;;19.75;19.75;;;;;25.36;47.16;100619.81;5025235;28;46184;-73
2022/10/23 02:07:56;;;;;;;;;20.75;20.25;;;;;25.34;47.37;100622.69;5035268;28;45490;-73
2022/10/23 02:10:31;;;;;;;;;28.25;26.75;;;;;25.35;46.97;100621.66;5035038;28;45393;-73
2022/10/23 02:13:06;;;;;;;;;23.75;23.00;;;;;25.35;47.17;100615.50;5035190;28;45389;-73
2022/10/23 02:15:40;;;;;;;;;21.25;20.50;;;;;25.33;47.12;100607.75;5035067;28;45392;-73
2022/10/23 02:18:12;;;;;;;;;21.75;21.75;;;;;25.33;47.12;100607.75;5034747;28;45622;-73
2022/10/23 02:20:41;;;;;;;;;23.00;22.00;;;;;25.32;46.86;100595.44;5035342;28;45429;-73
2022/10/23 02:23:13;;;;;;;;;20.25;19.50;;;;;25.32;46.85;100599.97;5034704;28;45418;-72
2022/10/23 02:25:55;;;;;;;;;24.50;23.00;;;;;25.33;46.67;100606.91;5034598;28;46423;-73
2022/10/23 02:28:27;;;;;;;;;22.75;21.50;;;;;25.33;46.75;100601.59;5034964;28;45315;-71
2022/10/23 02:30:55;;;;;;;;;21.75;19.25;;;;;25.32;46.53;100597.31;5034940;28;45383;-72
2022/10/23 02:33:22;;;;;;;;;20.25;20.25;;;;;25.26;46.99;100582.97;5033310;28;45267;-72
2022/10/23 02:35:48;;;;;;;;;19.75;19.00;;;;;25.33;46.87;100593.59;5022442;28;46299;-72
2022/10/23 02:38:36;;;;;;;;;19.75;18.75;;;;;25.32;46.48;100584.00;5034536;28;45852;-73
2022/10/23 02:41:16;;;;;;;;;19.25;18.00;;;;;25.32;46.69;100579.47;5033819;28;45396;-73
2022/10/23 02:43:55;;;;;;;;;21.50;19.50;;;;;25.24;46.79;100561.88;5034663;28;45528;-73
2022/10/23 02:46:27;;;;;;;;;19.00;17.00;;;;;25.31;46.60;100574.34;5021127;28;46039;-72
2022/10/23 02:49:16;;;;;;;;;18.75;18.75;;;;;25.32;46.73;100578.66;5021559;28;45455;-73
2022/10/23 02:52:19;;;;;;;;;16.75;16.75;;;;;25.30;46.58;100562.88;5023333;28;45303;-73
2022/10/23 02:55:07;;;;;;;;;21.50;18.25;;;;;25.31;46.73;100561.03;5034256;28;45649;-73
2022/10/23 02:57:45;;;;;;;;;20.25;19.25;;;;;25.18;46.50;100541.41;5034463;28;45463;-72
2022/10/23 03:00:14;;;;;;;;;24.25;22.25;;;;;25.29;46.60;100554.06;5034384;28;45421;-73
2022/10/23 03:02:45;;;;;;;;;20.25;20.25;;;;;25.24;46.13;100542.44;5034643;28;45360;-73
2022/10/23 03:05:18;;;;;;;;;25.50;23.00;;;;;25.29;46.88;100556.72;5034725;28;45315;-72
2022/10/23 03:07:45;;;;;;;;;24.50;20.25;;;;;25.20;46.44;100538.53;5033671;28;47462;-73
2022/10/23 03:10:11;;;;;;;;;16.00;14.75;;;;;25.26;46.51;100557.19;5034383;28;45647;-73
2022/10/23 03:12:36;;;;;;;;;18.00;14.25;;;;;25.19;46.41;100529.72;5034813;28;45731;-73
2022/10/23 03:15:02;;;;;;;;;10.75;10.00;;;;;25.28;46.27;100541.81;5034442;28;45453;-73
2022/10/23 03:17:27;;;;;;;;;17.75;17.75;;;;;25.28;46.39;100528.50;5034064;28;47490;-72
2022/10/23 03:19:53;;;;;;;;;28.50;27.25;;;;;25.28;46.69;100533.81;5034035;28;45331;-72
2022/10/23 03:22:18;;;;;;;;;27.25;24.00;;;;;25.23;46.94;100520.31;5034006;28;45316;-73
2022/10/23 03:24:43;;;;;;;;;23.50;18.25;;;;;25.29;46.55;100532.78;5034682;28;45342;-74
2022/10/23 03:27:10;;;;;;;;;25.50;22.50;;;;;25.28;47.19;100536.47;5034624;28;45397;-73
2022/10/23 03:29:36;;;;;;;;;15.50;14.50;;;;;25.28;46.88;100531.16;5034546;28;45357;-71
2022/10/23 03:32:01;;;;;;;;;15.50;15.50;;;;;25.27;46.73;100520.69;5034151;28;45348;-72
2022/10/23 03:34:27;;;;;;;;;15.67;13.00;;;;;25.21;45.62;100514.38;5034403;28;45497;-72
2022/10/23 03:36:52;;;;;;;;;15.67;13.00;;;;;25.07;45.36;100516.25;5036123;28;46042;-73
2022/10/23 03:39:18;;;;;;;;;14.67;13.00;;;;;24.87;45.65;100510.97;5037777;28;45362;-72
2022/10/23 03:41:43;;;;;;;;;13.67;13.67;;;;;24.82;46.62;100508.94;5037474;28;45319;-73
2022/10/23 03:44:08;;;;;;;;;14.33;13.00;;;;;24.83;46.82;100510.53;5037496;28;45434;-72
2022/10/23 03:46:33;;;;;;;;;16.25;16.25;;;;;24.88;46.82;100512.59;5037412;28;48861;-72
2022/10/23 03:48:59;;;;;;;;;18.50;17.00;;;;;24.90;47.01;100514.03;5037334;28;45351;-71
2022/10/23 03:51:25;;;;;;;;;21.00;20.50;;;;;24.93;46.96;100516.25;5037025;28;45282;-73
2022/10/23 03:53:50;;;;;;;;;19.75;18.25;;;;;24.85;47.25;100509.31;5037410;28;45267;-73
2022/10/23 03:56:16;;;;;;;;;18.25;16.50;;;;;24.99;47.38;100524.44;5033093;28;46250;-72
2022/10/23 03:58:41;;;;;;;;;25.75;22.00;;;;;25.00;47.32;100528.75;5027472;28;45397;-71
2022/10/23 04:01:07;;;;;;;;;19.50;19.50;;;;;24.95;47.76;100518.72;5037370;28;45214;-71
2022/10/23 04:03:32;;;;;;;;;23.25;20.00;;;;;25.04;47.59;100527.31;5037305;28;45175;-72
2022/10/23 04:05:57;;;;;;;;;10.75;8.75;;;;;25.06;48.00;100525.25;5036983;28;46016;-73
2022/10/23 04:08:23;;;;;;;;;21.50;21.00;;;;;25.07;48.01;100510.94;5037039;28;45176;-73
2022/10/23 04:10:48;;;;;;;;;20.75;20.75;;;;;25.09;48.24;100510.72;5036955;28;45317;-73
2022/10/23 04:13:13;;;;;;;;;18.25;18.25;;;;;25.09;48.00;100511.53;5037248;28;45315;-73
2022/10/23 04:15:38;;;;;;;;;25.25;22.00;;;;;25.11;48.14;100517.47;5026066;28;48607;-73
2022/10/23 04:18:04;;;;;;;;;21.25;20.75;;;;;25.07;47.93;100502.94;5032234;28;45465;-73
2022/10/23 04:20:30;;;;;;;;;21.25;20.25;;;;;25.12;48.16;100499.66;5036873;28;45388;-72
2022/10/23 04:22:55;;;;;;;;;23.50;20.50;;;;;25.11;48.16;100493.50;5036840;28;45440;-73
2022/10/23 04:25:20;;;;;;;;;27.25;24.75;;;;;25.12;48.15;100495.16;5036613;28;48199;-73
2022/10/23 04:27:47;;;;;;;;;22.00;21.25;;;;;25.11;48.09;100501.50;5036810;28;45481;-72
2022/10/23 04:30:12;;;;;;;;;26.75;22.75;;;;;25.11;48.28;100514.81;5036816;28;45534;-73
2022/10/23 04:32:37;;;;;;;;;23.50;20.25;;;;;25.14;48.36;100508.25;5036751;28;45503;-73
2022/10/23 04:35:03;;;;;;;;;22.75;21.25;;;;;25.13;48.37;100503.97;5036160;28;46079;-72
2022/10/23 04:37:28;;;;;;;;;15.25;15.25;;;;;25.12;48.13;100495.16;5036702;28;45323;-72
2022/10/23 04:39:54;;;;;;;;;24.50;22.75;;;;;25.13;47.86;100494.13;5037009;28;45452;-73
2022/10/23 04:42:19;;;;;;;;;22.50;21.75;;;;;25.13;48.26;100503.97;5036636;28;45408;-71
2022/10/23 04:44:44;;;;;;;;;22.00;20.25;;;;;25.11;48.40;100498.03;5036490;28;47665;-73
2022/10/23 04:47:10;;;;;;;;;22.50;22.50;;;;;25.01;48.37;100472.66;5036606;28;45327;-71
2022/10/23 04:49:35;;;;;;;;;23.00;21.50;;;;;25.12;48.00;100473.03;5036104;28;45357;-73
2022/10/23 04:52:00;;;;;;;;;18.50;16.25;;;;;25.12;48.30;100476.53;5036648;28;45533;-73
2022/10/23 04:54:25;;;;;;;;;20.25;20.25;;;;;25.12;48.31;100478.38;5036098;28;50198;-72
2022/10/23 04:56:51;;;;;;;;;19.75;19.00;;;;;25.12;48.28;100484.50;5036101;28;49035;-72
2022/10/23 04:59:16;;;;;;;;;20.50;19.25;;;;;25.13;48.13;100485.34;5036476;28;45393;-74
2022/10/23 05:01:41;;;;;;;;;19.00;18.25;;;;;25.04;48.43;100455.47;5036569;28;45489;-71
2022/10/23 05:04:07;;;;;;;;;22.25;21.00;;;;;25.13;48.33;100475.50;5035942;28;46056;-73
2022/10/23 05:06:32;;;;;;;;;23.00;20.00;;;;;25.14;48.27;100476.31;5035005;28;45358;-72
2022/10/23 05:08:57;;;;;;;;;21.00;20.00;;;;;25.14;48.36;100481.63;5036533;28;45330;-73
2022/10/23 05:11:23;;;;;;;;;22.50;20.25;;;;;25.09;48.33;100471.63;5035717;28;49231;-73
2022/10/23 05:13:48;;;;;;;;;25.50;22.00;;;;;25.14;48.20;100463.81;5036431;28;45962;-73
2022/10/23 05:16:44;;;;;;;;;22.25;20.75;;;;;25.16;48.38;100460.97;5035550;28;45298;-72
2022/10/23 05:19:16;;;;;;;;;18.00;15.25;;;;;25.11;48.28;100464.22;5024309;28;45499;-72
2022/10/23 05:21:42;;;;;;;;;24.25;20.00;;;;;25.15;48.17;100468.13;5033357;28;45513;-73
2022/10/23 05:24:09;;;;;;;;;23.00;20.00;;;;;25.15;48.49;100488.59;5033479;28;46138;-72
2022/10/23 05:26:34;;;;;;;;;18.00;17.25;;;;;25.14;48.37;100479.78;5033695;28;45592;-72
2022/10/23 05:28:59;;;;;;;;;22.75;19.50;;;;;25.15;48.63;100475.28;5033243;28;51334;-72
2022/10/23 05:31:25;;;;;;;;;21.25;18.75;;;;;25.15;48.40;100472.63;5033410;28;45334;-72
2022/10/23 05:33:53;;;;;;;;;23.00;20.25;;;;;25.10;48.36;100467.94;5033103;28;45581;-73
2022/10/23 05:36:18;;;;;;;;;19.75;19.00;;;;;25.14;48.05;100484.28;5033457;28;45470;-73
2022/10/23 05:38:44;;;;;;;;;19.75;18.00;;;;;25.14;48.15;100470.97;5033696;28;45593;-72
2022/10/23 05:41:10;;;;;;;;;19.50;19.00;;;;;25.14;48.48;100474.47;5033733;28;45377;-72
2022/10/23 05:43:35;;;;;;;;;20.25;18.00;;;;;25.14;48.23;100477.13;5033126;28;45460;-73
2022/10/23 05:46:05;;;;;;;;;21.25;19.00;;;;;25.10;48.60;100459.13;5033056;28;48921;-72
2022/10/23 05:48:30;;;;;;;;;22.00;21.25;;;;;25.07;48.47;100468.34;5033303;28;45458;-72
2022/10/23 05:51:02;;;;;;;;;22.75;20.00;;;;;25.13;48.48;100472.84;5033125;28;45460;-73
2022/10/23 05:53:27;;;;;;;;;17.75;17.50;;;;;25.13;48.75;100469.34;5033258;28;46167;-72
2022/10/23 05:55:52;;;;;;;;;20.50;19.00;;;;;25.13;48.48;100478.16;5033613;28;50801;-73
2022/10/23 05:58:17;;;;;;;;;18.75;17.50;;;;;25.13;48.44;100488.00;5034723;28;45306;-73
2022/10/23 06:00:43;;;;;;;;;17.75;17.75;;;;;25.11;48.40;100464.22;5035561;28;45199;-71
2022/10/23 06:03:08;;;;;;;;;17.00;16.50;;;;;25.10;48.55;100443.97;5035037;28;45318;-73
2022/10/23 06:05:33;;;;;;;;;17.50;16.00;;;;;25.12;48.36;100457.88;5035679;28;45343;-72
2022/10/23 06:07:59;;;;;;;;;18.50;18.50;;;;;24.98;48.74;100422.50;5035474;28;45386;-73
2022/10/23 06:10:25;;;;;;;;;18.00;18.00;;;;;25.12;48.51;100428.59;5035438;28;45494;-73
2022/10/23 06:12:51;;;;;;;;;17.00;16.00;;;;;25.12;48.72;100403.84;5034893;28;45401;-72
2022/10/23 06:15:16;;;;;;;;;23.50;18.50;;;;;25.09;48.59;100394.44;5035353;28;45474;-73
2022/10/23 06:17:41;;;;;;;;;18.25;16.50;;;;;25.10;48.81;100396.06;5034906;28;45336;-73
2022/10/23 06:20:07;;;;;;;;;17.75;17.50;;;;;25.08;48.55;100400.78;5034693;28;45486;-73
2022/10/23 06:22:33;;;;;;;;;22.00;19.25;;;;;25.09;48.48;100388.28;5035233;28;46360;-73
2022/10/23 06:24:58;;;;;;;;;5.00;5.00;;;;;25.09;48.60;100373.13;5034893;28;45433;-73
2022/10/23 06:27:24;;;;;;;;;16.00;15.75;;;;;25.08;48.57;100368.84;5035348;28;45387;-73
2022/10/23 06:29:49;;;;;;;;;17.00;17.00;;;;;25.07;48.58;100362.72;5035171;28;45503;-73
2022/10/23 06:32:14;;;;;;;;;19.00;16.25;;;;;25.08;48.78;100352.88;5034636;28;45856;-72
2022/10/23 06:34:40;;;;;;;;;18.00;18.00;;;;;25.10;48.91;100344.69;5034990;28;45373;-72
2022/10/23 06:37:05;;;;;;;;;15.75;15.50;;;;;25.10;48.71;100328.69;5035184;28;45280;-73
2022/10/23 06:39:30;;;;;;;;;14.00;13.00;;;;;25.10;48.54;100323.38;5035077;28;45293;-73
2022/10/23 06:41:55;;;;;;;;;17.00;17.00;;;;;25.11;48.52;100317.84;5034930;28;46373;-73
2022/10/23 06:44:21;;;;;;;;;16.25;16.00;;;;;25.04;48.55;100309.91;5030759;28;45223;-72
2022/10/23 06:46:46;;;;;;;;;18.75;15.00;;;;;25.11;48.65;100309.06;5024679;28;45294;-73
2022/10/23 06:49:16;;;;;;;;;18.25;16.50;;;;;25.11;48.38;100301.06;5034933;28;45449;-72
2022/10/23 06:51:41;;;;;;;;;14.25;13.50;;;;;25.11;48.77;100295.75;5034949;28;46443;-72
2022/10/23 06:54:08;;;;;;;;;13.00;13.00;;;;;25.05;48.57;100287.59;5034507;28;45386;-73
2022/10/23 06:56:34;;;;;;;;;15.00;14.00;;;;;25.11;48.99;100285.09;5033870;28;45472;-72
2022/10/23 06:59:00;;;;;;;;;14.50;13.25;;;;;25.10;48.62;100284.28;5034883;28;45413;-73
2022/10/23 07:01:25;;;;;;;;;16.00;16.00;;;;;25.09;48.93;100272.00;5033877;28;46072;-73
2022/10/23 07:03:50;;;;;;;;;17.25;16.25;;;;;25.02;48.81;100264.06;5034654;28;45597;-73
2022/10/23 07:06:16;;;;;;;;;16.50;14.75;;;;;25.00;48.96;100258.13;5034789;28;45356;-73
2022/10/23 07:08:41;;;;;;;;;19.75;15.00;;;;;25.05;48.69;100258.31;5034864;28;45511;-73
2022/10/23 07:11:09;;;;;;;;;14.50;14.50;;;;;25.08;48.57;100262.38;5036082;28;46863;-73
2022/10/23 07:13:35;;;;;;;;;15.75;15.25;;;;;25.09;48.71;100266.66;5037842;28;45657;-73
2022/10/23 07:16:21;;;;;;;;;15.00;14.50;;;;;25.07;48.60;100255.44;5038091;28;45387;-72
2022/10/23 07:18:48;;;;;;;;;13.00;13.00;;;;;25.09;48.82;100261.34;5037357;28;45396;-72
2022/10/23 07:21:13;;;;;;;;;15.33;15.33;;;;;25.08;48.69;100265.06;5037683;28;46895;-72
2022/10/23 07:23:39;;;;;;;;;17.50;15.75;;;;;25.08;48.65;100265.06;5037832;28;45293;-73
2022/10/23 07:26:10;;;;;;;;;14.25;12.75;;;;;25.07;48.61;100288.19;5037980;28;45352;-73
2022/10/23 07:28:36;;;;;;;;;15.00;14.00;;;;;25.09;48.38;100268.50;5033457;28;45458;-73
2022/10/23 07:31:02;;;;;;;;;16.00;16.00;;;;;25.09;48.64;100281.81;5027891;28;46081;-73
2022/10/23 07:33:27;;;;;;;;;15.00;13.25;;;;;25.07;48.63;100290.03;5037392;28;45444;-73
2022/10/23 07:35:53;;;;;;;;;13.25;13.25;;;;;25.06;48.51;100307.84;5037991;28;45490;-73
2022/10/23 07:38:18;;;;;;;;;12.75;12.00;;;;;25.07;48.70;100317.47;5037801;28;45638;-73
2022/10/23 07:40:44;;;;;;;;;14.75;14.50;;;;;25.07;48.82;100333.44;5037900;28;45499;-72
2022/10/23 07:43:10;;;;;;;;;14.00;14.00;;;;;25.07;48.65;100340.59;5037678;28;45457;-72
2022/10/23 07:45:35;;;;;;;;;14.75;13.75;;;;;25.01;48.68;100334.28;5023360;28;45416;-72
2022/10/23 07:48:00;;;;;;;;;14.75;14.75;;;;;25.06;48.73;100342.44;5037765;28;45297;-72
2022/10/23 07:50:26;;;;;;;;;12.67;11.67;;;;;25.05;48.77;100330.16;5037555;28;45314;-73
2022/10/23 07:52:51;;;;;;;;;13.67;12.00;;;;;25.05;48.62;100330.16;5037222;28;45314;-73
2022/10/23 07:55:17;;;;;;;;;12.33;12.33;;;;;25.06;48.58;100334.44;5037650;28;45323;-73
2022/10/23 07:57:42;;;;;;;;;13.25;13.00;;;;;25.06;48.44;100315.00;5035733;28;45595;-73
2022/10/23 08:00:09;;;;;;;;;14.75;14.75;;;;;25.06;48.59;100313.16;5037298;28;46175;-73
2022/10/23 08:02:35;;;;;;;;;12.00;11.00;;;;;25.06;48.66;100326.47;5037389;28;45362;-73
2022/10/23 08:05:00;;;;;;;;;13.75;12.75;;;;;25.06;48.65;100333.63;5037311;28;45431;-73
2022/10/23 08:07:25;;;;;;;;;13.25;13.25;;;;;25.07;48.73;100348.56;5037574;28;45409;-73
2022/10/23 08:09:51;;;;;;;;;12.00;12.00;;;;;25.06;48.61;100341.59;5037039;28;46838;-73
2022/10/23 08:12:16;;;;;;;;;13.00;11.33;;;;;25.05;48.54;100335.50;5036933;28;45377;-73
2022/10/23 08:14:42;;;;;;;;;13.33;12.33;;;;;25.06;48.63;100341.59;5037024;28;45368;-73
2022/10/23 08:17:08;;;;;;;;;13.75;12.75;;;;;25.07;48.53;100340.59;5037383;28;45321;-73
2022/10/23 08:19:35;;;;;;;;;12.67;12.00;;;;;25.07;48.75;100336.09;5036939;28;47035;-72
2022/10/23 08:22:00;;;;;;;;;10.33;10.33;;;;;25.06;48.22;100326.47;5030268;28;45290;-73
2022/10/23 08:24:25;;;;;;;;;9.33;9.33;;;;;25.06;48.63;100318.47;5024256;28;45328;-73
2022/10/23 08:26:51;;;;;;;;;8.00;8.00;;;;;25.07;48.64;100311.31;5034470;28;45299;-72
2022/10/23 08:29:16;;;;;;;;;12.50;12.50;;;;;25.06;48.63;100312.34;5036859;28;46197;-73
2022/10/23 08:31:41;;;;;;;;;14.50;13.00;;;;;25.06;48.83;100310.50;5036775;28;45285;-72
2022/10/23 08:34:06;;;;;;;;;13.00;11.33;;;;;25.06;48.74;100310.50;5036870;28;45596;-73
2022/10/23 08:36:32;;;;;;;;;11.50;11.50;;;;;25.02;48.69;100296.00;5037037;28;45224;-73
2022/10/23 08:38:58;;;;;;;;;11.00;10.67;;;;;25.07;48.41;100301.50;5036597;28;46253;-73
2022/10/23 08:41:31;;;;;;;;;12.25;10.25;;;;;25.09;48.67;100305.78;5036391;28;45371;-72
2022/10/23 08:44:19;;;;;;;;;11.25;11.00;;;;;25.07;48.55;100288.19;5036180;28;45419;-73
2022/10/23 08:46:49;;;;;;;;;11.50;11.50;;;;;25.08;48.75;100289.00;5020494;28;45428;-73
2022/10/23 08:49:26;;;;;;;;;12.25;12.25;;;;;25.09;48.64;100287.13;5036289;28;48266;-73
2022/10/23 08:51:54;;;;;;;;;14.00;12.25;;;;;25.09;48.57;100273.81;5036604;28;45473;-73
2022/10/23 08:54:38;;;;;;;;;12.75;10.75;;;;;25.09;48.50;100287.13;5036243;28;45501;-73
2022/10/23 08:57:12;;;;;;;;;11.00;11.00;;;;;25.10;48.51;100288.78;5036350;28;45375;-73
2022/10/23 08:59:45;;;;;;;;;10.00;10.00;;;;;25.09;48.40;100287.13;5032179;28;46171;-73
2022/10/23 09:02:16;;;;;;;;;9.67;9.67;;;;;25.09;48.53;100284.47;5027056;28;45365;-73
2022/10/23 09:04:45;;;;;;;;;11.33;11.33;;;;;25.02;48.68;100285.34;5036366;28;45405;-73
2022/10/23 09:07:31;;;;;;;;;11.00;10.00;;;;;25.10;48.73;100294.09;5036542;28;45575;-73
2022/10/23 09:09:56;;;;;;;;;10.00;10.00;;;;;25.08;48.48;100297.00;5035920;28;46298;-73
2022/10/23 09:12:24;;;;;;;;;9.67;9.00;;;;;25.09;48.70;100289.81;5036234;28;45277;-72
2022/10/23 09:15:01;;;;;;;;;14.00;12.33;;;;;25.10;48.68;100297.59;5022013;28;45795;-72
2022/10/23 09:17:27;;;;;;;;;11.00;10.33;;;;;25.10;48.98;100283.47;5035985;28;45522;-73
2022/10/23 09:20:18;;;;;;;;;10.00;9.00;;;;;25.09;48.42;100287.97;5035979;28;47059;-73
2022/10/23 09:22:45;;;;;;;;;8.67;8.67;;;;;25.09;48.61;100289.81;5036138;28;45390;-73
2022/10/23 09:25:17;;;;;;;;;11.00;11.00;;;;;25.09;48.52;100282.63;5035825;28;45406;-73
2022/10/23 09:27:52;;;;;;;;;10.00;10.00;;;;;25.09;48.69;100265.84;5036186;28;45330;-72
2022/10/23 09:30:33;;;;;;;;;9.00;8.00;;;;;25.10;48.51;100262.97;5035451;28;46278;-72
2022/10/23 09:33:00;;;;;;;;;10.67;10.67;;;;;25.09;48.53;100263.19;5034822;28;45415;-73
2022/10/23 09:35:28;;;;;;;;;8.33;8.00;;;;;25.00;48.79;100252.78;5035599;28;45523;-73
2022/10/23 09:37:54;;;;;;;;;12.67;10.33;;;;;25.07;48.51;100260.75;5036045;28;45367;-73
2022/10/23 09:40:19;;;;;;;;;10.33;10.33;;;;;25.06;48.73;100257.25;5035175;28;46105;-73
2022/10/23 09:43:13;;;;;;;;;10.00;10.00;;;;;25.07;48.65;100247.44;5035686;28;45369;-72
2022/10/23 09:45:41;;;;;;;;;11.33;10.00;;;;;25.06;48.59;100246.63;5015533;28;45347;-73
2022/10/23 09:48:13;;;;;;;;;8.00;8.00;;;;;25.07;48.69;100252.75;5035715;28;45251;-73
2022/10/23 09:50:59;;;;;;;;;9.00;9.00;;;;;25.00;48.38;100250.13;5035569;28;46087;-73
2022/10/23 09:53:36;;;;;;;;;7.33;7.33;;;;;25.09;48.35;100255.19;5023858;28;45556;-73
2022/10/23 09:56:06;;;;;;;;;9.33;8.00;;;;;25.07;48.61;100250.91;5034172;28;45340;-72
2022/10/23 09:58:51;;;;;;;;;10.33;10.33;;;;;25.06;48.50;100245.78;5035685;28;45374;-73
2022/10/23 10:01:27;;;;;;;;;7.67;7.67;;;;;25.09;48.52;100244.56;5035103;28;46132;-73
2022/10/23 10:03:52;;;;;;;;;10.00;10.00;;;;;25.09;48.54;100240.06;5035579;28;45451;-73
2022/10/23 10:06:24;;;;;;;;;9.00;9.00;;;;;25.09;48.56;100240.06;5035333;28;45409;-73
2022/10/23 10:08:54;;;;;;;;;8.67;8.67;;;;;25.08;48.62;100233.13;5035038;28;45305;-73
2022/10/23 10:11:37;;;;;;;;;9.00;9.00;;;;;25.09;48.52;100216.09;5034929;28;47305;-73
2022/10/23 10:14:21;;;;;;;;;8.00;8.00;;;;;25.09;48.58;100215.28;5035094;28;45279;-73
2022/10/23 10:16:50;;;;;;;;;9.33;9.33;;;;;25.09;48.56;100208.13;5034769;28;45277;-73
2022/10/23 10:19:33;;;;;;;;;9.00;9.00;;;;;25.09;48.56;100210.78;5035315;28;45392;-73
2022/10/23 10:22:22;;;;;;;;;10.67;9.00;;;;;25.09;48.33;100205.44;5034719;28;47393;-73
2022/10/23 10:25:00;;;;;;;;;8.33;8.33;;;;;25.01;48.73;100208.41;5034678;28;45397;-73
2022/10/23 10:27:44;;;;;;;;;7.00;7.00;;;;;25.09;48.97;100210.78;5034889;28;45301;-73
2022/10/23 10:30:20;;;;;;;;;8.00;8.00;;;;;25.11;48.48;100213.22;5034935;28;45431;-73
2022/10/23 10:33:08;;;;;;;;;4.33;4.00;;;;;25.10;47.64;100219.56;5034887;28;45381;-73
2022/10/23 10:35:41;;;;;;;;;5.67;4.00;;;;;24.99;47.47;100223.72;5028314;28;45389;-75
2022/10/23 10:38:30;;;;;;;;;6.00;4.00;;;;;24.83;47.49;100210.72;5034755;28;45734;-73
2022/10/23 10:41:34;;;;;;;;;4.33;4.33;;;;;24.81;47.41;100211.97;5034611;28;45452;-74
2022/10/23 10:44:27;;;;;;;;;3.33;3.33;;;;;24.69;47.63;100223.31;5029341;28;46209;-73
2022/10/23 10:47:18;;;;;;;;;2.00;2.00;;;;;24.62;47.50;100219.84;5033429;28;45414;-75
2022/10/23 10:50:02;;;;;;;;;2.67;2.00;;;;;24.55;47.69;100213.75;5038406;28;45390;-75
2022/10/23 10:52:36;;;;;;;;;3.33;3.00;;;;;24.50;47.71;100222.38;5033090;28;45406;-74
2022/10/23 10:55:22;;;;;;;;;4.67;3.00;;;;;24.45;47.44;100222.19;5030311;28;45431;-74
2022/10/23 10:57:55;;;;;;;;;2.33;2.33;;;;;24.38;47.47;100208.94;5025198;28;46159;-74
2022/10/23 11:00:22;;;;;;;;;1.67;1.67;;;;;24.34;47.74;100210.38;5038511;28;45399;-75
2022/10/23 11:02:52;;;;;;;;;2.33;2.33;;;;;24.28;47.76;100206.72;5036318;28;45318;-73
2022/10/23 11:05:30;;;;;;;;;2.00;2.00;;;;;24.26;47.85;100209.59;5030763;28;46223;-74
2022/10/23 11:08:06;;;;;;;;;3.00;3.00;;;;;24.25;48.25;100196.50;5037779;28;45423;-74
2022/10/23 11:10:34;;;;;;;;;2.00;2.00;;;;;24.22;47.50;100210.19;5038202;28;45500;-74
2022/10/23 11:12:59;;;;;;;;;1.00;1.00;;;;;24.21;47.18;100198.75;5038082;28;45400;-74
2022/10/23 11:15:30;;;;;;;;;3.00;3.00;;;;;24.20;47.57;100204.28;5038006;28;45709;-73
2022/10/23 11:18:04;;;;;;;;;7.00;2.00;;;;;24.13;47.55;100194.47;5037923;28;45595;-74
2022/10/23 11:20:39;;;;;;;;;3.00;1.33;;;;;24.15;47.62;100203.06;5037688;28;45338;-73
2022/10/23 11:23:33;;;;;;;;;3.00;3.00;;;;;24.10;47.37;100194.91;5023412;28;45247;-74
2022/10/23 11:26:24;;;;;;;;;2.00;2.00;;;;;24.05;47.50;100184.91;5037869;28;47461;-74